Time;durP1;ratioP1;P1;durP2;ratioP2;P2;SDS_P1;SDS_P2;PMS_P1;PMS_P2;Temp;Humidity;BMP_temperature;BMP_pressure;BME280_temperature;BME280_humidity;BME280_pressure;Samples;Min_cycle;Max_cycle;Signal;HPM_P1;HPM_P2
2022/07/03 00:01:55;;;;;;;8.88;5.65;;;;;;;18.25;68.38;101645.75;5034228;28;20025;-67
2022/07/03 00:04:21;;;;;;;9.15;5.95;;;;;;;18.26;68.48;101641.34;5047327;28;20032;-66
2022/07/03 00:06:47;;;;;;;8.02;5.80;;;;;;;18.19;68.05;101645.56;5047760;28;20066;-68
2022/07/03 00:09:13;;;;;;;8.10;6.20;;;;;;;18.15;67.31;101647.66;5033965;28;20059;-66
2022/07/03 00:11:38;;;;;;;7.63;5.97;;;;;;;18.18;67.30;101646.53;5038251;28;20087;-66
2022/07/03 00:14:04;;;;;;;7.85;5.93;;;;;;;18.23;67.60;101650.31;5028773;28;20685;-67
2022/07/03 00:16:29;;;;;;;10.15;6.15;;;;;;;18.21;67.85;101654.09;5028904;28;20474;-67
2022/07/03 00:18:55;;;;;;;10.75;6.18;;;;;;;18.07;68.19;101652.06;5028216;28;20033;-67
2022/07/03 00:21:27;;;;;;;7.25;5.40;;;;;;;17.98;68.69;101653.78;5042241;28;20631;-66
2022/07/03 00:24:07;;;;;;;7.15;5.38;;;;;;;17.91;68.65;101653.56;5029251;28;20053;-68
2022/07/03 00:26:37;;;;;;;7.90;5.68;;;;;;;17.79;69.00;101662.66;5046714;28;20025;-66
2022/07/03 00:29:03;;;;;;;7.68;6.40;;;;;;;17.67;69.16;101661.22;5047483;28;20020;-66
2022/07/03 00:31:30;;;;;;;7.47;6.30;;;;;;;17.57;69.27;101670.97;5032518;28;20052;-66
2022/07/03 00:34:01;;;;;;;7.78;5.60;;;;;;;17.47;69.93;101668.41;5028440;28;20424;-66
2022/07/03 00:36:35;;;;;;;7.35;6.25;;;;;;;17.45;70.53;101675.63;5026247;28;20389;-66
2022/07/03 00:39:01;;;;;;;7.70;6.03;;;;;;;17.40;71.45;101678.69;5047434;28;20036;-66
2022/07/03 00:41:28;;;;;;;8.32;6.72;;;;;;;17.06;70.85;101620.81;5039149;28;20373;-67
2022/07/03 00:43:54;;;;;;;9.18;6.57;;;;;;;17.40;70.85;101654.25;5028380;28;20052;-66
2022/07/03 00:46:23;;;;;;;8.52;6.78;;;;;;;17.24;70.92;101670.63;5028825;28;20034;-67
2022/07/03 00:48:50;;;;;;;10.30;6.30;;;;;;;17.35;70.74;101670.44;5036745;28;20021;-66
2022/07/03 00:51:21;;;;;;;9.13;6.57;;;;;;;17.37;70.90;101671.09;5039352;28;20029;-66
2022/07/03 00:53:50;;;;;;;9.02;6.50;;;;;;;17.25;71.51;101667.03;5031028;28;20025;-66
2022/07/03 00:56:16;;;;;;;9.10;6.38;;;;;;;17.23;71.80;101663.75;5046836;28;20025;-67
2022/07/03 00:58:42;;;;;;;7.47;5.78;;;;;;;17.25;71.58;101667.88;5044642;28;20033;-66
2022/07/03 01:01:10;;;;;;;8.65;5.50;;;;;;;17.02;71.04;101656.16;5047622;22;20029;-67
2022/07/03 01:03:43;;;;;;;8.43;5.85;;;;;;;17.23;71.10;101664.56;4993264;28;20034;-66
2022/07/03 01:06:15;;;;;;;7.38;5.68;;;;;;;17.21;70.37;101655.22;4987755;28;20378;-66
2022/07/03 01:08:48;;;;;;;8.02;5.75;;;;;;;17.15;70.80;101650.56;4988836;28;20331;-66
2022/07/03 01:11:21;;;;;;;8.80;5.65;;;;;;;16.96;72.32;101662.78;5001659;28;20022;-66
2022/07/03 01:14:15;;;;;;;9.32;5.50;;;;;;;17.10;71.65;101668.53;5013756;28;20038;-66
2022/07/03 01:16:43;;;;;;;9.25;5.78;;;;;;;16.82;72.31;101665.91;4998326;28;20494;-66
2022/07/03 01:19:36;;;;;;;8.43;5.80;;;;;;;16.94;71.94;101675.22;5020637;28;20075;-68
2022/07/03 01:22:14;;;;;;;8.23;5.50;;;;;;;16.98;71.61;101675.78;5019320;28;20121;-67
2022/07/03 01:24:39;;;;;;;8.27;5.90;;;;;;;16.96;71.74;101677.69;4993227;28;20037;-67
2022/07/03 01:27:10;;;;;;;6.80;5.32;;;;;;;16.86;72.07;101683.00;5003607;28;20284;-66
2022/07/03 01:29:50;;;;;;;7.97;5.50;;;;;;;16.81;71.81;101680.00;5005777;28;20029;-66
2022/07/03 01:32:17;;;;;;;7.72;5.40;;;;;;;16.83;71.22;101672.81;4988765;28;20025;-66
2022/07/03 01:34:48;;;;;;;7.65;5.75;;;;;;;16.67;70.99;101677.81;5000859;28;20025;-69
2022/07/03 01:37:16;;;;;;;10.00;5.97;;;;;;;16.69;71.71;101670.66;4992842;28;20052;-69
2022/07/03 01:39:46;;;;;;;9.25;5.90;;;;;;;16.70;71.57;101662.66;4995292;28;20037;-66
2022/07/03 01:42:13;;;;;;;8.13;5.72;;;;;;;16.68;71.06;101659.31;5004272;28;20076;-67
2022/07/03 01:44:40;;;;;;;9.73;6.30;;;;;;;16.77;71.22;101668.16;5003443;28;20017;-66
2022/07/03 01:47:06;;;;;;;8.35;6.15;;;;;;;16.74;71.80;101668.41;5002653;28;20034;-66
2022/07/03 01:49:32;;;;;;;10.15;6.18;;;;;;;16.65;71.60;101667.47;4999755;28;20068;-67
2022/07/03 01:52:00;;;;;;;9.13;6.20;;;;;;;16.67;71.31;101659.47;4999839;28;20096;-67
2022/07/03 01:54:26;;;;;;;12.02;6.28;;;;;;;16.60;72.28;101666.25;5007541;28;20018;-67
2022/07/03 01:56:54;;;;;;;8.80;6.20;;;;;;;16.57;72.45;101662.13;4989045;28;20045;-66
2022/07/03 01:59:19;;;;;;;10.88;6.28;;;;;;;16.51;72.26;101641.75;4987974;28;20302;-66
2022/07/03 02:01:57;;;;;;;9.10;6.57;;;;;;;16.65;72.63;101666.66;5001554;28;20426;-66
2022/07/03 02:04:30;;;;;;;9.63;6.90;;;;;;;16.62;72.87;101659.06;4997703;28;20436;-66
2022/07/03 02:07:04;;;;;;;10.05;6.97;;;;;;;16.57;72.51;101661.28;4989275;28;20105;-66
2022/07/03 02:09:55;;;;;;;9.25;6.80;;;;;;;16.67;71.88;101662.09;4997532;28;20053;-68
2022/07/03 02:12:31;;;;;;;9.52;6.85;;;;;;;16.48;72.54;101646.47;4986896;28;20022;-65
2022/07/03 02:15:06;;;;;;;10.10;6.72;;;;;;;16.58;72.31;101657.72;5002922;28;20030;-67
2022/07/03 02:17:38;;;;;;;8.73;6.85;;;;;;;16.52;72.64;101658.31;4992231;28;20028;-69
2022/07/03 02:20:07;;;;;;;10.63;6.90;;;;;;;16.45;72.61;101648.38;5002432;28;20117;-66
2022/07/03 02:22:37;;;;;;;9.27;7.03;;;;;;;16.33;72.95;101651.31;4992003;28;20026;-70
2022/07/03 02:25:18;;;;;;;8.95;6.82;;;;;;;16.33;73.10;101641.66;4995538;28;20026;-67
2022/07/03 02:27:55;;;;;;;10.48;7.20;;;;;;;16.36;73.77;101654.50;5005309;28;20108;-66
2022/07/03 02:30:23;;;;;;;10.48;7.38;;;;;;;16.43;73.73;101644.25;5004266;28;20025;-66
2022/07/03 02:32:51;;;;;;;9.37;7.37;;;;;;;16.31;74.22;101648.84;4990873;28;20026;-66
2022/07/03 02:35:27;;;;;;;9.98;7.13;;;;;;;16.39;74.07;101646.34;5002574;28;20315;-66
2022/07/03 02:37:59;;;;;;;8.88;7.25;;;;;;;16.32;74.31;101660.97;4992227;28;20022;-68
2022/07/03 02:40:30;;;;;;;8.82;6.97;;;;;;;16.24;74.49;101653.00;5004375;28;20030;-66
2022/07/03 02:43:02;;;;;;;11.95;7.13;;;;;;;16.27;74.25;101649.28;5020529;28;20029;-66
2022/07/03 02:45:38;;;;;;;9.68;7.18;;;;;;;16.25;73.74;101646.81;5002178;28;20033;-67
2022/07/03 02:48:12;;;;;;;8.90;7.57;;;;;;;16.12;74.01;101646.28;4989268;28;20109;-67
2022/07/03 02:50:40;;;;;;;9.27;7.30;;;;;;;16.05;74.52;101656.47;5005161;28;20034;-66
2022/07/03 02:53:27;;;;;;;10.95;7.93;;;;;;;16.02;74.69;101655.94;5004516;28;20053;-67
2022/07/03 02:56:04;;;;;;;9.52;7.75;;;;;;;15.98;74.56;101638.88;4994634;28;20038;-69
2022/07/03 02:58:53;;;;;;;9.10;7.50;;;;;;;15.97;74.48;101637.22;4992003;28;20472;-66
2022/07/03 03:01:27;;;;;;;10.35;7.57;;;;;;;15.99;74.65;101656.22;5002979;28;20117;-66
2022/07/03 03:04:28;;;;;;;8.82;7.50;;;;;;;15.91;74.47;101659.53;5005783;28;20540;-66
2022/07/03 03:07:14;;;;;;;8.88;7.53;;;;;;;15.82;74.61;101640.25;4999808;28;20056;-67
2022/07/03 03:09:45;;;;;;;9.20;7.97;;;;;;;15.75;75.25;101665.31;5005973;28;20087;-67
2022/07/03 03:12:12;;;;;;;9.55;7.63;;;;;;;15.71;75.16;101663.13;4992750;28;20914;-66
2022/07/03 03:14:47;;;;;;;10.40;7.38;;;;;;;15.70;75.59;101653.63;5005374;28;20040;-66
2022/07/03 03:17:23;;;;;;;8.80;7.90;;;;;;;15.75;75.46;101662.72;5004044;28;20069;-66
2022/07/03 03:19:55;;;;;;;8.63;7.43;;;;;;;15.67;75.48;101670.44;4999253;28;20117;-67
2022/07/03 03:22:45;;;;;;;8.88;7.40;;;;;;;15.66;75.59;101666.16;5002776;28;20125;-66
2022/07/03 03:25:11;;;;;;;9.10;7.35;;;;;;;15.63;75.08;101656.78;5019302;28;20026;-66
2022/07/03 03:27:36;;;;;;;9.05;7.95;;;;;;;15.65;75.94;101665.34;5003052;28;20463;-66
2022/07/03 03:30:06;;;;;;;12.90;7.57;;;;;;;15.68;76.12;101653.78;5005150;28;20026;-67
2022/07/03 03:32:34;;;;;;;9.32;7.80;;;;;;;15.65;76.26;101657.50;4990273;28;20454;-66
2022/07/03 03:34:59;;;;;;;8.77;7.80;;;;;;;15.64;76.04;101662.84;4991184;28;20038;-68
2022/07/03 03:37:25;;;;;;;9.55;7.50;;;;;;;15.57;76.16;101666.94;4990450;28;20398;-68
2022/07/03 03:39:51;;;;;;;8.52;7.47;;;;;;;15.59;76.30;101665.00;5007468;28;20532;-69
2022/07/03 03:42:16;;;;;;;8.63;7.40;;;;;;;15.53;76.25;101668.19;5006747;28;20034;-66
2022/07/03 03:44:41;;;;;;;10.10;7.85;;;;;;;15.49;76.27;101648.53;5001431;28;20026;-67
2022/07/03 03:47:07;;;;;;;8.50;7.60;;;;;;;15.51;76.25;101657.03;4990144;28;20062;-67
2022/07/03 03:49:33;;;;;;;10.05;7.55;;;;;;;15.26;77.03;101654.00;5008743;28;20354;-67
2022/07/03 03:51:58;;;;;;;9.63;7.82;;;;;;;15.55;76.91;101668.88;5007173;28;20408;-66
2022/07/03 03:54:24;;;;;;;8.95;8.02;;;;;;;15.55;76.76;101658.44;5008103;28;20495;-66
2022/07/03 03:56:49;;;;;;;9.88;7.97;;;;;;;15.61;75.81;101657.88;4994669;28;20434;-67
2022/07/03 03:59:15;;;;;;;9.18;8.07;;;;;;;15.63;75.83;101650.75;4996994;28;20022;-66
2022/07/03 04:01:40;;;;;;;9.35;7.38;;;;;;;15.64;75.36;101647.16;4988477;28;20054;-67
2022/07/03 04:04:06;;;;;;;8.82;7.93;;;;;;;15.70;74.75;101651.84;4990361;28;20038;-66
2022/07/03 04:06:31;;;;;;;9.05;7.30;;;;;;;15.76;74.44;101655.69;5003375;28;21041;-67
2022/07/03 04:08:57;;;;;;;8.65;7.68;;;;;;;15.80;73.81;101652.66;5002673;28;20029;-66
2022/07/03 04:11:22;;;;;;;9.88;7.60;;;;;;;15.74;73.91;101653.22;5002842;28;20509;-68
2022/07/03 04:13:47;;;;;;;9.57;7.90;;;;;;;15.80;73.95;101652.66;4994829;28;20033;-67
2022/07/03 04:16:13;;;;;;;9.00;8.10;;;;;;;15.77;74.13;101642.50;5007700;28;20106;-66
2022/07/03 04:18:38;;;;;;;9.00;7.82;;;;;;;15.82;74.50;101655.13;5006767;28;20096;-66
2022/07/03 04:21:04;;;;;;;8.75;7.85;;;;;;;15.81;74.01;101654.31;4999684;28;20034;-66
2022/07/03 04:23:30;;;;;;;9.60;8.13;;;;;;;15.72;74.96;101656.94;4989858;28;20030;-66
2022/07/03 04:25:55;;;;;;;9.70;8.52;;;;;;;15.66;74.87;101666.16;5001896;28;20030;-67
2022/07/03 04:28:20;;;;;;;11.02;9.30;;;;;;;15.57;75.95;101661.72;5001353;28;20113;-66
2022/07/03 04:30:47;;;;;;;10.50;8.43;;;;;;;15.64;75.12;101662.84;5002362;28;20018;-66
2022/07/03 04:33:12;;;;;;;10.75;8.45;;;;;;;15.63;75.44;101666.44;4989249;28;20030;-66
2022/07/03 04:35:38;;;;;;;10.15;8.18;;;;;;;15.66;75.45;101666.16;4991193;28;20470;-66
2022/07/03 04:38:03;;;;;;;9.88;8.10;;;;;;;15.56;75.48;101663.50;5009146;28;20025;-67
2022/07/03 04:40:29;;;;;;;10.23;8.70;;;;;;;15.46;76.46;101667.06;5002783;28;20026;-66
2022/07/03 04:42:54;;;;;;;10.13;8.35;;;;;;;15.55;75.59;101661.03;5000245;28;20391;-67
2022/07/03 04:45:20;;;;;;;10.25;8.80;;;;;;;15.53;76.19;101673.41;5002184;28;20498;-67
2022/07/03 04:47:45;;;;;;;9.38;8.40;;;;;;;15.68;75.41;101674.69;5002125;28;20030;-66
2022/07/03 04:50:11;;;;;;;9.38;8.20;;;;;;;15.71;74.69;101679.63;4999795;28;20026;-68
2022/07/03 04:52:36;;;;;;;9.43;7.60;;;;;;;15.68;75.26;101673.88;5003652;28;20021;-67
2022/07/03 04:55:02;;;;;;;9.18;8.10;;;;;;;15.76;75.31;101682.66;4998198;28;20045;-66
2022/07/03 04:57:28;;;;;;;9.68;8.68;;;;;;;15.68;76.27;101679.94;4998682;28;20034;-68
2022/07/03 04:59:53;;;;;;;11.70;8.68;;;;;;;15.76;75.44;101672.19;4989624;28;20064;-66
2022/07/03 05:02:19;;;;;;;10.00;8.50;;;;;;;15.67;76.05;101662.59;5003868;28;20665;-68
2022/07/03 05:04:44;;;;;;;10.07;8.90;;;;;;;15.71;76.57;101673.56;4989701;28;20034;-66
2022/07/03 05:07:09;;;;;;;12.18;10.05;;;;;;;15.66;76.61;101680.06;5007288;28;20513;-66
2022/07/03 05:09:35;;;;;;;11.65;10.18;;;;;;;15.70;76.88;101685.00;5007378;28;20100;-68
2022/07/03 05:12:00;;;;;;;11.43;9.95;;;;;;;15.74;76.40;101684.59;5005583;28;20065;-66
2022/07/03 05:14:26;;;;;;;11.52;9.90;;;;;;;15.66;76.40;101684.47;5007119;28;20032;-66
2022/07/03 05:16:51;;;;;;;10.57;9.35;;;;;;;15.74;75.79;101679.38;5004625;28;20038;-68
2022/07/03 05:19:16;;;;;;;10.57;9.48;;;;;;;15.78;76.49;101690.41;5007515;28;20466;-66
2022/07/03 05:21:42;;;;;;;11.57;9.60;;;;;;;15.65;76.66;101685.41;4993234;28;20034;-66
2022/07/03 05:24:07;;;;;;;10.95;9.70;;;;;;;15.71;76.87;101690.09;4991113;28;20120;-66
2022/07/03 05:26:32;;;;;;;10.88;9.68;;;;;;;15.69;78.22;101696.44;5000856;28;20026;-66
2022/07/03 05:28:58;;;;;;;9.98;8.98;;;;;;;15.76;77.37;101685.28;5002161;28;20022;-66
2022/07/03 05:31:23;;;;;;;10.60;8.70;;;;;;;15.83;76.68;101699.47;4992572;28;20521;-66
2022/07/03 05:33:48;;;;;;;10.52;8.57;;;;;;;15.93;77.23;101700.28;5002701;28;20849;-66
2022/07/03 05:36:14;;;;;;;10.20;8.85;;;;;;;15.80;77.77;101672.75;5007136;28;20517;-67
2022/07/03 05:41:23;;;;;;;11.18;7.90;;;;;;;16.12;77.67;101696.03;4988401;28;20041;-67
2022/07/03 05:43:49;;;;;;;9.77;7.78;;;;;;;16.11;76.94;101696.97;4988296;28;20030;-66
2022/07/03 05:46:14;;;;;;;9.82;7.65;;;;;;;16.13;77.35;101692.44;5005644;28;20466;-67
2022/07/03 05:48:40;;;;;;;10.27;7.97;;;;;;;16.20;76.77;101690.91;4995323;28;20065;-66
2022/07/03 05:51:05;;;;;;;9.70;7.43;;;;;;;16.13;77.00;101695.06;5004446;28;20101;-66
2022/07/03 05:53:31;;;;;;;10.18;7.50;;;;;;;16.21;77.61;101692.53;5001142;28;20490;-66
2022/07/03 05:55:58;;;;;;;8.38;6.75;;;;;;;16.34;77.35;101697.47;4987418;28;20128;-66
2022/07/03 05:58:23;;;;;;;9.02;6.60;;;;;;;16.44;77.56;101704.34;5006009;28;20425;-66
2022/07/03 06:00:48;;;;;;;8.75;6.55;;;;;;;16.56;76.63;101712.03;5006708;28;20064;-66
2022/07/03 06:03:14;;;;;;;9.27;6.32;;;;;;;16.58;77.62;101704.88;5003017;28;20504;-66
2022/07/03 06:05:39;;;;;;;9.75;6.75;;;;;;;16.62;76.97;101691.31;4988291;28;20045;-65
2022/07/03 06:08:05;;;;;;;8.13;5.68;;;;;;;16.74;76.57;101697.25;4988986;28;20066;-66
2022/07/03 06:10:33;;;;;;;8.88;5.07;;;;;;;16.78;76.18;101696.00;4994469;28;20029;-66
2022/07/03 06:12:58;;;;;;;7.65;5.10;;;;;;;16.81;76.30;101700.97;4995043;28;20030;-66
2022/07/03 06:15:24;;;;;;;8.07;4.78;;;;;;;16.87;76.51;101700.38;4998713;28;20462;-66
2022/07/03 06:17:50;;;;;;;7.95;4.70;;;;;;;17.01;75.86;101700.84;4997476;28;20038;-66
2022/07/03 06:20:15;;;;;;;8.55;4.50;;;;;;;16.99;75.73;101707.06;5002831;28;20116;-66
2022/07/03 06:22:41;;;;;;;7.93;4.55;;;;;;;17.06;75.97;101703.88;4998103;28;20041;-66
2022/07/03 06:25:07;;;;;;;7.25;4.40;;;;;;;17.10;75.41;101705.22;4994267;28;20019;-66
2022/07/03 06:27:32;;;;;;;8.85;4.30;;;;;;;17.16;75.95;101709.88;4995343;28;20030;-66
2022/07/03 06:29:58;;;;;;;8.63;4.00;;;;;;;17.18;75.88;101711.38;4996712;28;20025;-67
2022/07/03 06:32:23;;;;;;;6.70;3.40;;;;;;;17.23;75.83;101708.31;4996681;28;20041;-66
2022/07/03 06:34:49;;;;;;;5.72;3.38;;;;;;;17.38;75.03;101712.09;4996542;28;20033;-66
2022/07/03 06:37:14;;;;;;;9.00;3.58;;;;;;;17.36;75.66;101711.41;4994642;28;20077;-67
2022/07/03 06:39:40;;;;;;;8.88;3.67;;;;;;;17.46;75.26;101706.09;4988649;28;20069;-66
2022/07/03 06:42:05;;;;;;;6.90;3.30;;;;;;;17.44;74.39;101698.41;4991877;28;20096;-67
2022/07/03 06:44:30;;;;;;;6.13;3.45;;;;;;;17.58;76.00;101709.34;4989979;28;20034;-66
2022/07/03 06:46:56;;;;;;;8.15;3.30;;;;;;;17.66;76.08;101715.50;4995083;28;20080;-66
2022/07/03 06:49:21;;;;;;;7.22;2.95;;;;;;;17.71;74.98;101709.78;4990889;28;20446;-67
2022/07/03 06:51:47;;;;;;;7.70;3.25;;;;;;;17.79;74.49;101709.91;5006359;28;20032;-66
2022/07/03 06:54:12;;;;;;;6.68;3.00;;;;;;;17.91;73.32;101721.81;4994584;28;20029;-66
2022/07/03 06:56:37;;;;;;;6.60;2.92;;;;;;;17.88;74.41;101711.59;4990531;28;20445;-66
2022/07/03 06:59:03;;;;;;;7.82;3.05;;;;;;;18.00;74.31;101715.63;4996243;28;20454;-66
2022/07/03 07:01:28;;;;;;;8.30;3.20;;;;;;;18.03;75.02;101707.47;4991148;28;20061;-67
2022/07/03 07:03:53;;;;;;;9.90;3.22;;;;;;;18.18;73.67;101713.00;4996332;28;20068;-67
2022/07/03 07:06:19;;;;;;;6.82;2.60;;;;;;;18.16;73.45;101708.88;4990034;28;20050;-66
2022/07/03 07:08:44;;;;;;;7.07;3.10;;;;;;;18.25;73.67;101705.34;4986468;28;20026;-65
2022/07/03 07:11:10;;;;;;;7.95;3.25;;;;;;;18.30;73.70;101711.78;4998542;28;20037;-67
2022/07/03 07:13:35;;;;;;;9.27;3.22;;;;;;;18.29;72.56;101704.03;4996023;28;20026;-66
2022/07/03 07:16:01;;;;;;;7.50;3.03;;;;;;;18.39;72.57;101704.75;4999308;28;20026;-66
2022/07/03 07:18:26;;;;;;;6.07;2.72;;;;;;;18.56;72.50;101711.75;4990814;28;20024;-65
2022/07/03 07:20:52;;;;;;;7.88;2.92;;;;;;;18.63;72.32;101705.88;5009363;28;20049;-66
2022/07/03 07:23:17;;;;;;;8.85;3.28;;;;;;;18.70;71.57;101706.97;4991829;28;20022;-69
2022/07/03 07:25:42;;;;;;;7.22;3.00;;;;;;;18.78;71.26;101715.69;4988874;28;20076;-66
2022/07/03 07:28:08;;;;;;;7.90;3.00;;;;;;;18.87;71.23;101708.69;4986733;28;20034;-66
2022/07/03 07:30:33;;;;;;;6.50;2.90;;;;;;;18.80;71.97;101707.63;4989314;28;20054;-66
2022/07/03 07:32:58;;;;;;;7.90;2.83;;;;;;;18.84;71.53;101722.94;4988424;28;20065;-65
2022/07/03 07:35:24;;;;;;;7.00;3.00;;;;;;;18.89;70.47;101726.91;4986311;28;20076;-66
2022/07/03 07:37:49;;;;;;;6.25;2.38;;;;;;;18.81;68.30;101730.34;4990886;28;20541;-66
2022/07/03 07:40:15;;;;;;;6.80;2.60;;;;;;;18.93;70.04;101736.13;4990204;28;20061;-66
2022/07/03 07:42:42;;;;;;;4.30;1.95;;;;;;;19.04;67.58;101726.16;4992185;28;20113;-67
2022/07/03 07:45:08;;;;;;;6.25;2.40;;;;;;;19.12;68.18;101737.69;4987126;28;20475;-66
2022/07/03 07:47:34;;;;;;;7.07;2.55;;;;;;;19.22;68.21;101733.13;4999027;28;20033;-66
2022/07/03 07:49:59;;;;;;;4.93;2.00;;;;;;;19.19;68.03;101717.66;5000146;28;20030;-66
2022/07/03 07:52:24;;;;;;;4.93;2.00;;;;;;;19.29;66.47;101739.38;4991877;28;20054;-66
2022/07/03 07:54:50;;;;;;;4.10;1.80;;;;;;;19.45;66.94;101734.19;4990796;28;20044;-66
2022/07/03 07:57:15;;;;;;;4.68;1.98;;;;;;;19.60;67.05;101737.84;4987132;28;20026;-66
2022/07/03 07:59:41;;;;;;;5.47;2.22;;;;;;;19.53;65.41;101739.44;4991466;28;20070;-68
2022/07/03 08:07:34;;;;;;;4.60;1.80;;;;;;;19.89;65.39;101747.09;4998023;28;20032;-70
2022/07/03 08:09:59;;;;;;;7.28;1.85;;;;;;;19.94;63.91;101750.06;5000281;28;20030;-66
2022/07/03 08:12:25;;;;;;;5.40;1.98;;;;;;;19.97;63.96;101744.47;4995991;28;20026;-66
2022/07/03 08:14:50;;;;;;;5.72;2.00;;;;;;;20.06;65.12;101748.72;4985723;28;20026;-67
2022/07/03 08:17:15;;;;;;;4.80;2.13;;;;;;;20.03;64.50;101751.72;4999678;28;20526;-66
2022/07/03 08:19:41;;;;;;;6.30;2.13;;;;;;;20.01;64.17;101745.75;4997971;28;20350;-66
2022/07/03 08:22:06;;;;;;;5.57;2.40;;;;;;;20.16;64.93;101753.84;5004989;28;20454;-66
2022/07/03 08:24:32;;;;;;;6.90;2.42;;;;;;;20.26;63.70;101748.41;5002937;28;20038;-66
2022/07/03 08:26:57;;;;;;;5.65;2.17;;;;;;;20.13;65.15;101744.47;4998678;28;20526;-67
2022/07/03 08:29:22;;;;;;;6.03;2.40;;;;;;;20.31;66.86;101752.19;5002569;28;20406;-66
2022/07/03 08:31:48;;;;;;;6.28;2.20;;;;;;;20.32;65.24;101758.28;4989147;28;20450;-68
2022/07/03 08:34:13;;;;;;;4.75;2.15;;;;;;;20.64;64.40;101760.06;5007304;28;20485;-69
2022/07/03 08:36:42;;;;;;;6.75;2.20;;;;;;;20.64;65.32;101753.00;4997442;28;20352;-65
2022/07/03 08:39:09;;;;;;;5.93;2.53;;;;;;;20.71;64.62;101749.69;5001611;28;20077;-67
2022/07/03 08:41:38;;;;;;;5.55;2.78;;;;;;;20.92;66.59;101757.84;4998928;28;20022;-68
2022/07/03 08:44:05;;;;;;;5.00;2.40;;;;;;;21.06;63.94;101751.88;4996416;28;20025;-66
2022/07/03 08:46:32;;;;;;;6.75;2.33;;;;;;;21.16;64.66;101762.19;5018710;28;20434;-69
2022/07/03 08:49:02;;;;;;;5.30;2.30;;;;;;;20.82;61.95;101765.16;5005792;28;20032;-66
2022/07/03 08:51:27;;;;;;;5.60;2.40;;;;;;;20.95;62.61;101749.59;5006868;28;20106;-66
2022/07/03 08:53:56;;;;;;;6.32;2.33;;;;;;;20.91;64.25;101750.91;5008194;28;20113;-65
2022/07/03 08:56:23;;;;;;;6.30;2.00;;;;;;;21.32;62.50;101753.41;5005837;28;20033;-65
2022/07/03 08:58:49;;;;;;;6.70;1.80;;;;;;;21.31;61.09;101755.22;5006501;28;20148;-65
2022/07/03 09:01:16;;;;;;;5.78;1.95;;;;;;;21.33;62.38;101757.69;5006796;28;20153;-66
2022/07/03 09:03:42;;;;;;;5.95;2.72;;;;;;;21.18;62.34;101750.47;4989489;28;20863;-65
2022/07/03 09:06:08;;;;;;;6.63;2.10;;;;;;;21.37;63.09;101748.44;5001741;28;20018;-65
2022/07/03 09:08:34;;;;;;;4.30;1.90;;;;;;;21.37;62.03;101749.25;5001882;28;20068;-68
2022/07/03 09:10:59;;;;;;;6.80;2.40;;;;;;;21.26;60.86;101746.97;5005076;28;20026;-67
2022/07/03 09:13:25;;;;;;;5.65;2.00;;;;;;;21.30;61.14;101747.50;5003353;28;20034;-65
2022/07/03 09:15:50;;;;;;;5.72;1.73;;;;;;;21.06;60.37;101743.94;5003463;28;20464;-67
2022/07/03 09:18:16;;;;;;;4.63;1.70;;;;;;;21.36;61.95;101744.16;5005013;28;20434;-66
2022/07/03 09:20:41;;;;;;;4.75;1.90;;;;;;;21.62;61.66;101757.88;4996714;28;20033;-65
2022/07/03 09:23:16;;;;;;;5.57;1.90;;;;;;;21.66;61.78;101753.88;5003196;28;20042;-66
2022/07/03 09:25:54;;;;;;;5.50;2.10;;;;;;;21.79;61.58;101748.00;4993776;28;20066;-65
2022/07/03 09:28:23;;;;;;;7.85;2.15;;;;;;;21.62;60.66;101749.94;4990992;28;20038;-67
2022/07/03 09:31:00;;;;;;;3.55;1.60;;;;;;;21.74;60.96;101745.91;5000235;28;20110;-66
2022/07/03 09:33:26;;;;;;;6.80;2.10;;;;;;;22.02;61.05;101747.97;4992300;28;20034;-65
2022/07/03 09:35:55;;;;;;;5.05;1.63;;;;;;;21.95;59.30;101750.50;4993980;28;20029;-66
2022/07/03 09:38:21;;;;;;;5.28;1.58;;;;;;;21.85;57.92;101741.19;4998046;28;20034;-65
2022/07/03 09:40:54;;;;;;;4.05;1.50;;;;;;;21.76;60.25;101752.81;4994383;28;20022;-67
2022/07/03 09:43:30;;;;;;;6.10;1.48;;;;;;;22.09;60.89;101743.63;4998163;28;20116;-66
2022/07/03 09:46:01;;;;;;;4.22;1.65;;;;;;;22.24;60.57;101757.72;4995567;28;20072;-66
2022/07/03 09:48:33;;;;;;;5.05;1.30;;;;;;;22.44;60.70;101757.22;4990195;28;20030;-65
2022/07/03 09:51:08;;;;;;;6.68;1.60;;;;;;;22.58;61.18;101758.22;4996640;28;20029;-68
2022/07/03 09:54:03;;;;;;;6.70;1.60;;;;;;;22.60;58.83;101767.63;4995650;28;20030;-68
2022/07/03 09:56:38;;;;;;;3.97;1.75;;;;;;;22.47;57.55;101764.78;4992470;28;20380;-67
2022/07/03 09:59:05;;;;;;;4.78;1.65;;;;;;;22.60;57.10;101762.34;4995634;28;20026;-68
2022/07/03 10:01:31;;;;;;;4.65;1.70;;;;;;;22.32;58.27;101770.06;4989015;28;20549;-66
2022/07/03 10:04:17;;;;;;;3.78;1.63;;;;;;;22.31;57.91;101772.84;4992359;28;20092;-67
2022/07/03 10:06:46;;;;;;;4.07;1.60;;;;;;;22.19;57.98;101775.97;4997566;28;20029;-68
2022/07/03 10:09:14;;;;;;;4.97;1.70;;;;;;;22.21;56.24;101763.38;4993190;28;20026;-67
2022/07/03 10:11:40;;;;;;;4.35;1.70;;;;;;;22.31;57.04;101767.56;4991129;28;20141;-67
2022/07/03 10:14:06;;;;;;;3.85;1.50;;;;;;;22.49;56.08;101770.72;4992212;28;20371;-67
2022/07/03 10:16:32;;;;;;;3.35;1.40;;;;;;;22.82;57.08;101771.19;4998276;28;20583;-67
2022/07/03 10:18:57;;;;;;;4.82;1.50;;;;;;;22.87;56.04;101765.34;4990679;28;20109;-67
2022/07/03 10:21:23;;;;;;;3.63;1.30;;;;;;;22.93;56.31;101772.56;4996057;28;20018;-68
2022/07/03 10:23:49;;;;;;;4.90;1.40;;;;;;;22.96;54.43;101766.94;4993361;28;20471;-67
2022/07/03 10:26:15;;;;;;;3.10;1.30;;;;;;;23.21;54.66;101760.31;4996417;28;20033;-67
2022/07/03 10:28:41;;;;;;;3.42;1.60;;;;;;;23.05;54.26;101755.22;4995438;28;20080;-66
2022/07/03 10:31:07;;;;;;;4.38;1.58;;;;;;;23.23;54.30;101768.91;4994560;28;20026;-67
2022/07/03 10:33:36;;;;;;;4.90;1.90;;;;;;;22.98;54.68;101764.91;4995691;28;20030;-67
2022/07/03 10:36:02;;;;;;;4.63;1.60;;;;;;;23.24;54.77;101765.25;4989167;28;20068;-66
2022/07/03 10:38:39;;;;;;;3.80;1.50;;;;;;;23.21;55.13;101773.53;4992243;28;20112;-69
2022/07/03 10:46:52;;;;;;;3.88;1.75;;;;;;;23.38;54.68;101781.28;4994925;28;20033;-67
2022/07/03 10:49:17;;;;;;;5.15;1.80;;;;;;;23.31;54.45;101782.03;5002594;28;20026;-67
2022/07/03 10:51:58;;;;;;;5.22;1.90;;;;;;;23.37;54.83;101780.47;5006251;28;20438;-67
2022/07/03 10:54:28;;;;;;;3.78;1.80;;;;;;;23.31;54.75;101781.22;5005193;28;20464;-67
2022/07/03 10:57:02;;;;;;;3.97;1.77;;;;;;;22.84;53.37;101784.25;5005387;28;20033;-67
2022/07/03 10:59:43;;;;;;;4.85;2.08;;;;;;;23.03;55.33;101789.00;5003810;28;20034;-67
2022/07/03 11:02:28;;;;;;;5.35;1.83;;;;;;;23.29;56.66;101784.06;4992019;28;20076;-66
2022/07/03 11:04:56;;;;;;;3.78;1.80;;;;;;;23.61;55.85;101781.94;5005662;28;20033;-66
2022/07/03 11:07:21;;;;;;;5.15;2.03;;;;;;;23.61;52.14;101781.94;5001870;28;20037;-66
2022/07/03 11:10:10;;;;;;;3.78;2.15;;;;;;;23.47;53.88;101793.41;4994807;28;20512;-67
2022/07/03 11:12:55;;;;;;;5.03;1.80;;;;;;;23.49;53.80;101788.75;4992878;28;20084;-67
2022/07/03 11:15:40;;;;;;;4.97;1.80;;;;;;;23.30;54.78;101785.69;5013941;28;20076;-67
2022/07/03 11:18:07;;;;;;;5.07;2.00;;;;;;;23.35;52.87;101779.84;5020282;28;20669;-66
2022/07/03 11:20:46;;;;;;;3.90;1.75;;;;;;;23.65;53.55;101767.34;5001402;28;20022;-66
2022/07/03 11:23:26;;;;;;;3.50;1.60;;;;;;;23.79;53.70;101763.81;5006298;28;20469;-67
2022/07/03 11:26:00;;;;;;;4.05;1.80;;;;;;;23.77;50.89;101757.91;5021772;28;20029;-66
2022/07/03 11:28:31;;;;;;;5.03;1.80;;;;;;;23.95;52.83;101754.78;5004780;28;20091;-65
2022/07/03 11:31:18;;;;;;;4.38;1.80;;;;;;;23.97;51.72;101755.44;4987067;28;20122;-67
2022/07/03 11:33:56;;;;;;;4.10;1.70;;;;;;;24.17;52.67;101766.19;4994827;28;20061;-65
2022/07/03 11:36:21;;;;;;;3.85;1.75;;;;;;;23.84;52.53;101755.31;4992316;28;20807;-66
2022/07/03 11:38:55;;;;;;;5.05;1.80;;;;;;;23.57;51.67;101759.50;5000350;28;20120;-66
2022/07/03 11:41:22;;;;;;;3.78;1.70;;;;;;;23.80;53.06;101759.34;5004864;28;20088;-66
2022/07/03 11:43:48;;;;;;;4.40;1.65;;;;;;;23.62;51.27;101757.13;4987006;28;20363;-69
2022/07/03 11:46:24;;;;;;;3.42;1.40;;;;;;;23.98;51.83;101758.91;4993503;28;20025;-67